createdAt,value
2019-03-24T00:01:41.078Z,63.10
2019-03-24T00:04:06.784Z,62.80
2019-03-24T00:06:35.452Z,62.50
2019-03-24T00:09:06.323Z,63.50
2019-03-24T00:11:34.978Z,62.40
2019-03-24T00:14:03.655Z,62.80
2019-03-24T00:16:32.320Z,62.80
2019-03-24T00:19:01.002Z,62.80
2019-03-24T00:21:29.660Z,63.00
2019-03-24T00:23:58.329Z,63.20
2019-03-24T00:26:26.985Z,63.20
2019-03-24T00:28:55.716Z,63.30
2019-03-24T00:31:24.369Z,63.50
2019-03-24T00:33:53.061Z,63.50
2019-03-24T00:36:21.793Z,63.60
2019-03-24T00:38:50.519Z,64.30
2019-03-24T00:41:19.180Z,63.80
2019-03-24T00:43:47.859Z,64.00
2019-03-24T00:46:16.696Z,64.00
2019-03-24T00:48:45.369Z,64.10
2019-03-24T00:51:14.030Z,65.30
2019-03-24T00:53:42.690Z,64.30
2019-03-24T00:56:11.382Z,64.10
2019-03-24T00:58:40.036Z,63.90
2019-03-24T01:01:08.712Z,64.10
2019-03-24T01:03:37.366Z,64.10
2019-03-24T01:06:06.060Z,64.50
2019-03-24T01:08:34.799Z,64.40
2019-03-24T01:11:03.546Z,64.50
2019-03-24T01:13:32.201Z,64.40
2019-03-24T01:16:00.883Z,64.60
2019-03-24T01:18:29.529Z,64.70
2019-03-24T01:20:58.201Z,64.60
2019-03-24T01:23:26.867Z,64.80
2019-03-24T01:25:55.575Z,64.50
2019-03-24T01:28:24.244Z,64.60
2019-03-24T01:30:52.931Z,64.80
2019-03-24T01:33:21.606Z,64.50
2019-03-24T01:35:50.299Z,64.70
2019-03-24T01:38:19.869Z,64.90
2019-03-24T01:40:48.551Z,65.10
2019-03-24T01:43:17.205Z,65.00
2019-03-24T01:45:45.875Z,65.20
2019-03-24T01:48:14.559Z,65.70
2019-03-24T01:50:43.240Z,65.10
2019-03-24T01:53:11.901Z,65.90
2019-03-24T01:55:40.571Z,65.10
2019-03-24T01:58:09.228Z,64.90
2019-03-24T02:00:37.969Z,64.80
2019-03-24T02:03:06.622Z,65.80
2019-03-24T02:05:35.291Z,65.30
2019-03-24T02:08:03.964Z,65.50
2019-03-24T02:10:32.624Z,65.30
2019-03-24T02:13:01.322Z,65.40
2019-03-24T02:15:30.000Z,65.70
2019-03-24T02:17:58.644Z,65.90
2019-03-24T02:20:27.297Z,67.00
2019-03-24T02:22:56.117Z,67.00
2019-03-24T02:25:24.777Z,66.80
2019-03-24T02:27:53.472Z,65.60
2019-03-24T02:30:22.126Z,66.70
2019-03-24T02:32:50.812Z,66.70
2019-03-24T02:35:19.469Z,67.00
2019-03-24T02:37:48.182Z,67.40
2019-03-24T02:40:16.841Z,67.10
2019-03-24T02:42:45.503Z,67.20
2019-03-24T02:45:14.223Z,67.20
2019-03-24T02:47:42.894Z,67.40
2019-03-24T02:50:11.724Z,67.60
2019-03-24T02:52:40.404Z,67.60
2019-03-24T02:55:10.292Z,67.50
2019-03-24T02:57:38.971Z,67.90
2019-03-24T03:00:08.982Z,67.90
2019-03-24T03:02:37.643Z,68.30
2019-03-24T03:05:07.944Z,68.90
2019-03-24T03:07:36.600Z,69.00
2019-03-24T03:10:09.592Z,69.40
2019-03-24T03:12:38.265Z,70.10
2019-03-24T03:15:08.193Z,69.80
2019-03-24T03:17:36.856Z,69.50
2019-03-24T03:20:07.076Z,69.60
2019-03-24T03:22:35.773Z,69.60
2019-03-24T03:25:09.027Z,69.70
2019-03-24T03:27:37.702Z,70.00
2019-03-24T03:30:09.744Z,69.90
2019-03-24T03:32:38.616Z,70.00
2019-03-24T03:35:08.146Z,70.30
2019-03-24T03:37:36.833Z,70.40
2019-03-24T03:40:08.735Z,70.40
2019-03-24T03:42:39.134Z,70.50
2019-03-24T03:45:10.624Z,70.60
2019-03-24T03:47:39.826Z,70.60
2019-03-24T03:50:08.920Z,70.70
2019-03-24T03:52:37.576Z,70.90
2019-03-24T03:55:06.791Z,70.90
2019-03-24T03:57:35.451Z,70.70
2019-03-24T04:00:08.323Z,70.70
2019-03-24T04:02:36.994Z,70.80
2019-03-24T04:05:06.811Z,70.90
2019-03-24T04:07:35.478Z,71.10
2019-03-24T04:10:04.771Z,70.80
2019-03-24T04:12:33.435Z,70.60
2019-03-24T04:15:02.073Z,70.50
2019-03-24T04:17:30.822Z,70.40
2019-03-24T04:20:00.568Z,70.70
2019-03-24T04:22:29.547Z,71.10
2019-03-24T04:24:58.193Z,71.00
2019-03-24T04:27:26.866Z,70.80
2019-03-24T04:29:55.540Z,71.10
2019-03-24T04:32:24.200Z,71.40
2019-03-24T04:34:52.849Z,71.30
2019-03-24T04:37:21.518Z,71.00
2019-03-24T04:39:50.153Z,71.00
2019-03-24T04:42:18.830Z,71.20
2019-03-24T04:44:47.482Z,71.70
2019-03-24T04:47:16.934Z,71.70
2019-03-24T04:49:45.673Z,71.50
2019-03-24T04:52:14.341Z,71.40
2019-03-24T04:54:42.993Z,71.40
2019-03-24T04:57:11.654Z,71.40
2019-03-24T04:59:40.306Z,70.70
2019-03-24T05:02:08.983Z,70.60
2019-03-24T05:04:37.625Z,70.60
2019-03-24T05:07:06.297Z,70.40
2019-03-24T05:09:34.946Z,70.20
2019-03-24T05:12:03.599Z,70.20
2019-03-24T05:14:32.252Z,70.10
2019-03-24T05:17:00.898Z,70.00
2019-03-24T05:19:29.580Z,69.80
2019-03-24T05:21:58.293Z,69.70
2019-03-24T05:24:26.947Z,69.70
2019-03-24T05:26:55.663Z,69.50
2019-03-24T05:29:24.329Z,69.70
2019-03-24T05:31:52.975Z,70.10
2019-03-24T05:34:21.642Z,70.10
2019-03-24T05:36:50.337Z,70.20
2019-03-24T05:39:18.961Z,70.20
2019-03-24T05:41:47.611Z,70.20
2019-03-24T05:44:16.326Z,70.00
2019-03-24T05:46:44.971Z,70.00
2019-03-24T05:49:13.638Z,69.80
2019-03-24T05:51:42.294Z,69.80
2019-03-24T05:54:10.951Z,69.90
2019-03-24T05:56:39.595Z,69.80
2019-03-24T05:59:08.264Z,69.70
2019-03-24T06:01:36.915Z,69.80
2019-03-24T06:04:05.572Z,69.90
2019-03-24T06:06:34.222Z,69.90
2019-03-24T06:09:04.456Z,70.00
2019-03-24T06:11:33.171Z,69.80
2019-03-24T06:14:01.829Z,69.80
2019-03-24T06:16:30.510Z,69.60
2019-03-24T06:18:59.186Z,69.70
2019-03-24T06:21:27.883Z,69.50
2019-03-24T06:23:56.601Z,71.40
2019-03-24T06:26:25.251Z,69.10
2019-03-24T06:28:54.174Z,68.50
2019-03-24T06:31:22.816Z,68.50
2019-03-24T06:33:51.473Z,68.30
2019-03-24T06:36:20.139Z,68.30
2019-03-24T06:38:48.801Z,68.00
2019-03-24T06:41:17.489Z,67.60
2019-03-24T06:43:46.125Z,66.10
2019-03-24T06:46:15.104Z,66.20
2019-03-24T06:48:43.829Z,66.00
2019-03-24T06:51:12.489Z,65.80
2019-03-24T06:53:41.172Z,66.10
2019-03-24T06:56:09.827Z,64.90
2019-03-24T06:58:38.481Z,64.60
2019-03-24T07:01:07.155Z,64.60
2019-03-24T07:03:35.812Z,64.00
2019-03-24T07:06:04.490Z,64.80
2019-03-24T07:08:33.784Z,63.30
2019-03-24T07:11:02.471Z,62.80
2019-03-24T07:13:31.123Z,62.70
2019-03-24T07:16:01.113Z,61.80
2019-03-24T07:18:30.782Z,60.80
2019-03-24T07:20:59.599Z,60.50
2019-03-24T07:23:28.271Z,60.00
2019-03-24T07:25:56.946Z,59.40
2019-03-24T07:28:25.608Z,59.10
2019-03-24T07:30:54.289Z,58.50
2019-03-24T07:33:22.957Z,57.90
2019-03-24T07:35:51.630Z,57.20
2019-03-24T07:38:20.293Z,56.40
2019-03-24T07:40:48.967Z,56.50
2019-03-24T07:43:17.650Z,55.20
2019-03-24T07:45:46.315Z,54.80
2019-03-24T07:48:19.382Z,53.50
2019-03-24T07:50:45.759Z,54.00
2019-03-24T07:53:14.419Z,51.40
2019-03-24T07:55:43.111Z,50.30
2019-03-24T07:58:11.775Z,52.60
2019-03-24T08:00:40.554Z,55.10
2019-03-24T08:03:09.261Z,55.50
2019-03-24T08:05:38.023Z,49.20
2019-03-24T08:08:06.686Z,49.50
2019-03-24T08:10:35.366Z,50.20
2019-03-24T08:13:04.119Z,47.80
2019-03-24T08:15:32.806Z,49.60
2019-03-24T08:18:01.488Z,47.60
2019-03-24T08:20:30.150Z,46.80
2019-03-24T08:22:58.820Z,47.10
2019-03-24T08:25:27.495Z,48.60
2019-03-24T08:27:56.150Z,48.00
2019-03-24T08:30:33.167Z,48.00
2019-03-24T08:33:01.998Z,46.20
2019-03-24T08:35:30.763Z,46.90
2019-03-24T08:37:59.503Z,47.20
2019-03-24T08:40:28.179Z,45.80
2019-03-24T08:42:56.836Z,45.80
2019-03-24T08:45:27.549Z,43.70
2019-03-24T08:47:57.767Z,44.60
2019-03-24T08:50:26.712Z,43.10
2019-03-24T08:52:56.363Z,42.80
2019-03-24T08:55:25.057Z,41.70
2019-03-24T08:57:53.711Z,38.90
2019-03-24T09:00:30.572Z,42.00
2019-03-24T09:02:52.913Z,40.60
2019-03-24T09:05:21.632Z,40.50
2019-03-24T09:07:50.309Z,41.10
2019-03-24T09:10:19.032Z,41.00
2019-03-24T09:12:47.715Z,41.40
2019-03-24T12:05:51.924Z,31.00
2019-03-24T12:08:20.606Z,31.50
2019-03-24T12:10:49.260Z,32.20
2019-03-24T12:13:17.947Z,33.30
2019-03-24T17:55:01.075Z,59.40
2019-03-24T18:18:43.538Z,56.30
2019-03-24T18:21:12.963Z,56.80
2019-03-24T18:23:42.418Z,56.40
2019-03-24T18:26:11.913Z,55.90
2019-03-24T18:28:43.430Z,55.90
2019-03-24T18:31:12.649Z,55.60
2019-03-24T18:36:51.920Z,57.90
2019-03-24T18:41:56.386Z,57.50
2019-03-24T18:47:02.465Z,48.20
2019-03-24T18:52:07.017Z,52.80
